sensor_id;sensor_type;location;lat;lon;timestamp;temperature;humidity
46652;DHT22;32377;52.182;5.398;2023-04-23T00:00:04;8.30;99.90
46652;DHT22;32377;52.182;5.398;2023-04-23T00:02:32;8.30;99.90
46652;DHT22;32377;52.182;5.398;2023-04-23T00:05:02;8.30;99.90
46652;DHT22;32377;52.182;5.398;2023-04-23T00:07:32;8.30;99.90
46652;DHT22;32377;52.182;5.398;2023-04-23T00:09:59;8.30;99.90
46652;DHT22;32377;52.182;5.398;2023-04-23T00:12:25;8.30;99.90
46652;DHT22;32377;52.182;5.398;2023-04-23T00:14:52;8.30;99.90
46652;DHT22;32377;52.182;5.398;2023-04-23T00:17:17;8.20;99.90
46652;DHT22;32377;52.182;5.398;2023-04-23T00:19:44;8.30;99.90
46652;DHT22;32377;52.182;5.398;2023-04-23T00:22:10;8.30;99.90
46652;DHT22;32377;52.182;5.398;2023-04-23T00:24:38;8.20;99.90
46652;DHT22;32377;52.182;5.398;2023-04-23T00:27:04;8.20;99.90
46652;DHT22;32377;52.182;5.398;2023-04-23T00:29:29;8.20;99.90
46652;DHT22;32377;52.182;5.398;2023-04-23T00:31:55;8.20;99.90
46652;DHT22;32377;52.182;5.398;2023-04-23T00:34:21;8.30;99.90
46652;DHT22;32377;52.182;5.398;2023-04-23T00:36:46;8.30;99.90
46652;DHT22;32377;52.182;5.398;2023-04-23T00:39:12;8.20;99.90
46652;DHT22;32377;52.182;5.398;2023-04-23T00:41:38;8.30;99.90
46652;DHT22;32377;52.182;5.398;2023-04-23T00:44:06;8.20;99.90
46652;DHT22;32377;52.182;5.398;2023-04-23T00:46:31;8.20;99.90
46652;DHT22;32377;52.182;5.398;2023-04-23T00:48:57;8.30;99.90
46652;DHT22;32377;52.182;5.398;2023-04-23T00:51:23;8.20;99.90
46652;DHT22;32377;52.182;5.398;2023-04-23T00:53:49;8.20;99.90
46652;DHT22;32377;52.182;5.398;2023-04-23T00:56:16;8.20;99.90
46652;DHT22;32377;52.182;5.398;2023-04-23T00:58:43;8.10;99.90
46652;DHT22;32377;52.182;5.398;2023-04-23T01:01:09;8.20;99.90
46652;DHT22;32377;52.182;5.398;2023-04-23T01:03:37;8.20;99.90
46652;DHT22;32377;52.182;5.398;2023-04-23T01:06:05;8.20;99.90
46652;DHT22;32377;52.182;5.398;2023-04-23T01:08:31;8.10;99.90
46652;DHT22;32377;52.182;5.398;2023-04-23T01:10:58;8.10;99.90
46652;DHT22;32377;52.182;5.398;2023-04-23T01:13:24;8.10;99.90
46652;DHT22;32377;52.182;5.398;2023-04-23T01:15:54;8.20;99.90
46652;DHT22;32377;52.182;5.398;2023-04-23T01:18:20;8.20;99.90
46652;DHT22;32377;52.182;5.398;2023-04-23T01:20:46;8.20;99.90
46652;DHT22;32377;52.182;5.398;2023-04-23T01:23:11;8.20;99.90
46652;DHT22;32377;52.182;5.398;2023-04-23T01:25:37;8.10;99.90
46652;DHT22;32377;52.182;5.398;2023-04-23T01:28:04;8.10;99.90
46652;DHT22;32377;52.182;5.398;2023-04-23T01:30:31;8.10;99.90
46652;DHT22;32377;52.182;5.398;2023-04-23T01:32:57;8.10;99.90
46652;DHT22;32377;52.182;5.398;2023-04-23T01:35:24;8.10;99.90
46652;DHT22;32377;52.182;5.398;2023-04-23T01:37:50;8.00;99.90
46652;DHT22;32377;52.182;5.398;2023-04-23T01:40:18;8.00;99.90
46652;DHT22;32377;52.182;5.398;2023-04-23T01:42:44;8.00;99.90
46652;DHT22;32377;52.182;5.398;2023-04-23T01:45:10;8.00;99.90
46652;DHT22;32377;52.182;5.398;2023-04-23T01:47:36;8.00;99.90
46652;DHT22;32377;52.182;5.398;2023-04-23T01:50:02;8.10;99.90
46652;DHT22;32377;52.182;5.398;2023-04-23T01:52:29;8.00;99.90
46652;DHT22;32377;52.182;5.398;2023-04-23T01:54:55;8.10;99.90
46652;DHT22;32377;52.182;5.398;2023-04-23T01:57:20;8.10;99.90
46652;DHT22;32377;52.182;5.398;2023-04-23T01:59:51;8.10;99.90
46652;DHT22;32377;52.182;5.398;2023-04-23T02:02:16;8.20;99.90
46652;DHT22;32377;52.182;5.398;2023-04-23T02:04:43;8.20;99.90
46652;DHT22;32377;52.182;5.398;2023-04-23T02:07:10;8.20;99.90
46652;DHT22;32377;52.182;5.398;2023-04-23T02:09:36;8.30;99.90
46652;DHT22;32377;52.182;5.398;2023-04-23T02:12:01;8.30;99.90
46652;DHT22;32377;52.182;5.398;2023-04-23T02:14:28;8.30;99.90
46652;DHT22;32377;52.182;5.398;2023-04-23T02:16:53;8.30;99.90
46652;DHT22;32377;52.182;5.398;2023-04-23T02:19:22;8.30;99.90
46652;DHT22;32377;52.182;5.398;2023-04-23T02:21:47;8.30;99.90
46652;DHT22;32377;52.182;5.398;2023-04-23T02:24:13;8.30;99.90
46652;DHT22;32377;52.182;5.398;2023-04-23T02:26:38;8.30;99.90
46652;DHT22;32377;52.182;5.398;2023-04-23T02:29:04;8.30;99.90
46652;DHT22;32377;52.182;5.398;2023-04-23T02:31:30;8.30;99.90
46652;DHT22;32377;52.182;5.398;2023-04-23T02:33:55;8.40;99.90
46652;DHT22;32377;52.182;5.398;2023-04-23T02:36:21;8.40;99.90
46652;DHT22;32377;52.182;5.398;2023-04-23T02:38:46;8.40;99.90
46652;DHT22;32377;52.182;5.398;2023-04-23T02:41:15;8.40;99.90
46652;DHT22;32377;52.182;5.398;2023-04-23T02:43:40;8.40;99.90
46652;DHT22;32377;52.182;5.398;2023-04-23T02:46:06;8.40;99.90
46652;DHT22;32377;52.182;5.398;2023-04-23T02:48:37;8.40;99.90
46652;DHT22;32377;52.182;5.398;2023-04-23T02:51:03;8.40;99.90
46652;DHT22;32377;52.182;5.398;2023-04-23T02:53:28;8.40;99.90
46652;DHT22;32377;52.182;5.398;2023-04-23T02:55:54;8.40;99.90
46652;DHT22;32377;52.182;5.398;2023-04-23T02:58:20;8.40;99.90
46652;DHT22;32377;52.182;5.398;2023-04-23T03:00:45;8.40;99.90
46652;DHT22;32377;52.182;5.398;2023-04-23T03:03:11;8.40;99.90
46652;DHT22;32377;52.182;5.398;2023-04-23T03:05:37;8.30;99.90
46652;DHT22;32377;52.182;5.398;2023-04-23T03:08:02;8.40;99.90
46652;DHT22;32377;52.182;5.398;2023-04-23T03:10:28;8.40;99.90
46652;DHT22;32377;52.182;5.398;2023-04-23T03:12:53;8.40;99.90
46652;DHT22;32377;52.182;5.398;2023-04-23T03:15:20;8.40;99.90
46652;DHT22;32377;52.182;5.398;2023-04-23T03:17:46;8.40;99.90
46652;DHT22;32377;52.182;5.398;2023-04-23T03:20:12;8.50;99.90
46652;DHT22;32377;52.182;5.398;2023-04-23T03:22:37;8.40;99.90
46652;DHT22;32377;52.182;5.398;2023-04-23T03:25:03;8.40;99.90
46652;DHT22;32377;52.182;5.398;2023-04-23T03:27:29;8.50;99.90
46652;DHT22;32377;52.182;5.398;2023-04-23T03:29:55;8.50;99.90
46652;DHT22;32377;52.182;5.398;2023-04-23T03:32:20;8.50;99.90
46652;DHT22;32377;52.182;5.398;2023-04-23T03:34:46;8.50;99.90
46652;DHT22;32377;52.182;5.398;2023-04-23T03:37:12;8.50;99.90
46652;DHT22;32377;52.182;5.398;2023-04-23T03:39:37;8.50;99.90
46652;DHT22;32377;52.182;5.398;2023-04-23T03:42:03;8.50;99.90
46652;DHT22;32377;52.182;5.398;2023-04-23T03:44:29;8.50;99.90
46652;DHT22;32377;52.182;5.398;2023-04-23T03:46:55;8.50;99.90
46652;DHT22;32377;52.182;5.398;2023-04-23T03:49:21;8.50;99.90
46652;DHT22;32377;52.182;5.398;2023-04-23T03:51:47;8.50;99.90
46652;DHT22;32377;52.182;5.398;2023-04-23T03:54:12;8.50;99.90
46652;DHT22;32377;52.182;5.398;2023-04-23T03:59:18;8.40;99.90
46652;DHT22;32377;52.182;5.398;2023-04-23T04:01:45;8.40;99.90
46652;DHT22;32377;52.182;5.398;2023-04-23T04:04:13;8.40;99.90
46652;DHT22;32377;52.182;5.398;2023-04-23T04:06:39;8.40;99.90
46652;DHT22;32377;52.182;5.398;2023-04-23T04:09:04;8.40;99.90
46652;DHT22;32377;52.182;5.398;2023-04-23T04:11:32;8.40;99.90
46652;DHT22;32377;52.182;5.398;2023-04-23T04:13:57;8.40;99.90
46652;DHT22;32377;52.182;5.398;2023-04-23T04:16:23;8.40;99.90
46652;DHT22;32377;52.182;5.398;2023-04-23T04:18:48;8.30;99.90
46652;DHT22;32377;52.182;5.398;2023-04-23T04:21:14;8.20;99.90
46652;DHT22;32377;52.182;5.398;2023-04-23T04:23:42;8.30;99.90
46652;DHT22;32377;52.182;5.398;2023-04-23T04:26:07;8.30;99.90
46652;DHT22;32377;52.182;5.398;2023-04-23T04:28:33;8.30;99.90
46652;DHT22;32377;52.182;5.398;2023-04-23T04:31:02;8.30;99.90
46652;DHT22;32377;52.182;5.398;2023-04-23T04:33:28;8.30;99.90
46652;DHT22;32377;52.182;5.398;2023-04-23T04:35:54;8.30;99.90
46652;DHT22;32377;52.182;5.398;2023-04-23T04:38:21;8.30;99.90
46652;DHT22;32377;52.182;5.398;2023-04-23T04:40:46;8.30;99.90
46652;DHT22;32377;52.182;5.398;2023-04-23T04:43:13;8.30;99.90
46652;DHT22;32377;52.182;5.398;2023-04-23T04:45:39;8.30;99.90
46652;DHT22;32377;52.182;5.398;2023-04-23T04:48:05;8.30;99.90
46652;DHT22;32377;52.182;5.398;2023-04-23T04:50:30;8.30;99.90
46652;DHT22;32377;52.182;5.398;2023-04-23T04:52:56;8.30;99.90
46652;DHT22;32377;52.182;5.398;2023-04-23T04:55:22;8.30;99.90
46652;DHT22;32377;52.182;5.398;2023-04-23T04:57:47;8.30;99.90
46652;DHT22;32377;52.182;5.398;2023-04-23T05:00:24;8.30;99.90
46652;DHT22;32377;52.182;5.398;2023-04-23T05:02:52;8.30;99.90
46652;DHT22;32377;52.182;5.398;2023-04-23T05:05:19;8.30;99.90
46652;DHT22;32377;52.182;5.398;2023-04-23T05:07:45;8.30;99.90
46652;DHT22;32377;52.182;5.398;2023-04-23T05:10:11;8.30;99.90
46652;DHT22;32377;52.182;5.398;2023-04-23T05:12:36;8.30;99.90
46652;DHT22;32377;52.182;5.398;2023-04-23T05:15:06;8.40;99.90
46652;DHT22;32377;52.182;5.398;2023-04-23T05:17:32;8.40;99.90
46652;DHT22;32377;52.182;5.398;2023-04-23T05:19:57;8.40;99.90
46652;DHT22;32377;52.182;5.398;2023-04-23T05:22:23;8.40;99.90
46652;DHT22;32377;52.182;5.398;2023-04-23T05:24:48;8.40;99.90
46652;DHT22;32377;52.182;5.398;2023-04-23T05:27:14;8.40;99.90
46652;DHT22;32377;52.182;5.398;2023-04-23T05:29:40;8.50;99.90
46652;DHT22;32377;52.182;5.398;2023-04-23T05:32:05;8.50;99.90
46652;DHT22;32377;52.182;5.398;2023-04-23T05:34:31;8.60;99.90
46652;DHT22;32377;52.182;5.398;2023-04-23T05:36:56;8.60;99.90
46652;DHT22;32377;52.182;5.398;2023-04-23T05:39:22;8.70;99.90
46652;DHT22;32377;52.182;5.398;2023-04-23T05:41:47;8.80;99.90
46652;DHT22;32377;52.182;5.398;2023-04-23T05:44:13;8.90;99.90
46652;DHT22;32377;52.182;5.398;2023-04-23T05:46:39;8.90;99.90
46652;DHT22;32377;52.182;5.398;2023-04-23T05:49:04;8.90;99.90
46652;DHT22;32377;52.182;5.398;2023-04-23T05:51:30;9.00;99.90
46652;DHT22;32377;52.182;5.398;2023-04-23T05:53:56;9.10;99.90
46652;DHT22;32377;52.182;5.398;2023-04-23T05:56:21;9.20;99.90
46652;DHT22;32377;52.182;5.398;2023-04-23T05:58:47;9.30;99.90
46652;DHT22;32377;52.182;5.398;2023-04-23T06:01:12;9.30;99.90
46652;DHT22;32377;52.182;5.398;2023-04-23T06:03:38;9.40;99.90
46652;DHT22;32377;52.182;5.398;2023-04-23T06:06:07;9.50;99.90
46652;DHT22;32377;52.182;5.398;2023-04-23T06:08:32;9.50;99.90
46652;DHT22;32377;52.182;5.398;2023-04-23T06:10:58;9.60;99.90
46652;DHT22;32377;52.182;5.398;2023-04-23T06:13:24;9.70;99.90
46652;DHT22;32377;52.182;5.398;2023-04-23T06:15:50;9.70;99.90
46652;DHT22;32377;52.182;5.398;2023-04-23T06:18:16;9.80;99.90
46652;DHT22;32377;52.182;5.398;2023-04-23T06:20:42;10.00;99.90
46652;DHT22;32377;52.182;5.398;2023-04-23T06:23:07;10.10;99.90
46652;DHT22;32377;52.182;5.398;2023-04-23T06:25:33;10.10;99.90
46652;DHT22;32377;52.182;5.398;2023-04-23T06:27:58;10.20;99.90
46652;DHT22;32377;52.182;5.398;2023-04-23T06:30:24;10.30;99.90
46652;DHT22;32377;52.182;5.398;2023-04-23T06:32:49;10.40;99.90
46652;DHT22;32377;52.182;5.398;2023-04-23T06:35:15;10.40;99.90
46652;DHT22;32377;52.182;5.398;2023-04-23T06:37:40;10.50;99.90
46652;DHT22;32377;52.182;5.398;2023-04-23T06:40:06;10.60;99.90
46652;DHT22;32377;52.182;5.398;2023-04-23T06:42:32;10.70;99.90
46652;DHT22;32377;52.182;5.398;2023-04-23T06:44:58;10.70;99.90
46652;DHT22;32377;52.182;5.398;2023-04-23T06:47:28;10.80;99.90
46652;DHT22;32377;52.182;5.398;2023-04-23T06:49:54;11.00;99.90
46652;DHT22;32377;52.182;5.398;2023-04-23T06:52:19;11.00;99.90
46652;DHT22;32377;52.182;5.398;2023-04-23T06:54:45;11.10;99.90
46652;DHT22;32377;52.182;5.398;2023-04-23T06:57:10;11.20;99.90
46652;DHT22;32377;52.182;5.398;2023-04-23T06:59:36;11.30;99.90
46652;DHT22;32377;52.182;5.398;2023-04-23T07:02:02;11.50;99.90
46652;DHT22;32377;52.182;5.398;2023-04-23T07:04:27;11.50;99.90
46652;DHT22;32377;52.182;5.398;2023-04-23T07:06:53;11.70;99.90
46652;DHT22;32377;52.182;5.398;2023-04-23T07:09:19;11.80;99.90
46652;DHT22;32377;52.182;5.398;2023-04-23T07:11:45;11.90;99.90
46652;DHT22;32377;52.182;5.398;2023-04-23T07:14:10;12.10;99.90
46652;DHT22;32377;52.182;5.398;2023-04-23T07:16:36;12.10;99.90
46652;DHT22;32377;52.182;5.398;2023-04-23T07:19:02;12.20;99.90
46652;DHT22;32377;52.182;5.398;2023-04-23T07:21:28;12.10;99.90
46652;DHT22;32377;52.182;5.398;2023-04-23T07:23:55;12.20;99.90
46652;DHT22;32377;52.182;5.398;2023-04-23T07:26:21;12.30;99.90
46652;DHT22;32377;52.182;5.398;2023-04-23T07:28:47;12.40;99.90
46652;DHT22;32377;52.182;5.398;2023-04-23T07:31:13;12.50;99.90
46652;DHT22;32377;52.182;5.398;2023-04-23T07:33:39;12.50;99.90
46652;DHT22;32377;52.182;5.398;2023-04-23T07:36:04;12.60;99.90
46652;DHT22;32377;52.182;5.398;2023-04-23T07:38:30;12.60;99.90
46652;DHT22;32377;52.182;5.398;2023-04-23T07:40:55;12.80;99.90
46652;DHT22;32377;52.182;5.398;2023-04-23T07:43:21;12.90;99.90
46652;DHT22;32377;52.182;5.398;2023-04-23T07:45:47;13.00;99.90
46652;DHT22;32377;52.182;5.398;2023-04-23T07:48:12;13.10;99.90
46652;DHT22;32377;52.182;5.398;2023-04-23T07:50:38;13.10;99.90
46652;DHT22;32377;52.182;5.398;2023-04-23T07:53:03;13.30;99.90
46652;DHT22;32377;52.182;5.398;2023-04-23T07:55:29;13.20;99.90
46652;DHT22;32377;52.182;5.398;2023-04-23T07:57:54;13.30;99.90
46652;DHT22;32377;52.182;5.398;2023-04-23T08:00:20;13.30;99.90
46652;DHT22;32377;52.182;5.398;2023-04-23T08:02:46;13.30;99.90
46652;DHT22;32377;52.182;5.398;2023-04-23T08:05:11;13.40;99.90
46652;DHT22;32377;52.182;5.398;2023-04-23T08:07:37;13.40;99.90
46652;DHT22;32377;52.182;5.398;2023-04-23T08:10:04;13.50;99.90
46652;DHT22;32377;52.182;5.398;2023-04-23T08:12:31;13.70;99.90
46652;DHT22;32377;52.182;5.398;2023-04-23T08:14:58;13.80;99.90
46652;DHT22;32377;52.182;5.398;2023-04-23T08:17:24;13.70;99.90
46652;DHT22;32377;52.182;5.398;2023-04-23T08:19:50;13.80;99.90
46652;DHT22;32377;52.182;5.398;2023-04-23T08:22:16;13.90;99.90
46652;DHT22;32377;52.182;5.398;2023-04-23T08:24:43;13.90;99.90
46652;DHT22;32377;52.182;5.398;2023-04-23T08:27:09;14.20;99.90
46652;DHT22;32377;52.182;5.398;2023-04-23T08:29:35;14.20;99.90
46652;DHT22;32377;52.182;5.398;2023-04-23T08:32:00;14.20;99.90
46652;DHT22;32377;52.182;5.398;2023-04-23T08:34:26;14.30;99.90
46652;DHT22;32377;52.182;5.398;2023-04-23T08:36:51;14.30;99.90
46652;DHT22;32377;52.182;5.398;2023-04-23T08:39:17;14.40;99.90
46652;DHT22;32377;52.182;5.398;2023-04-23T08:41:44;14.50;99.90
46652;DHT22;32377;52.182;5.398;2023-04-23T08:44:16;14.50;99.90
46652;DHT22;32377;52.182;5.398;2023-04-23T08:46:43;14.50;99.90
46652;DHT22;32377;52.182;5.398;2023-04-23T08:49:13;14.50;99.90
46652;DHT22;32377;52.182;5.398;2023-04-23T08:51:45;14.50;99.90
46652;DHT22;32377;52.182;5.398;2023-04-23T08:54:21;14.60;99.90
46652;DHT22;32377;52.182;5.398;2023-04-23T08:56:50;14.80;99.90
46652;DHT22;32377;52.182;5.398;2023-04-23T08:59:17;15.00;99.90
46652;DHT22;32377;52.182;5.398;2023-04-23T09:01:43;15.10;99.90
46652;DHT22;32377;52.182;5.398;2023-04-23T09:04:09;15.30;99.90
46652;DHT22;32377;52.182;5.398;2023-04-23T09:06:35;15.30;99.90
46652;DHT22;32377;52.182;5.398;2023-04-23T09:09:02;15.30;99.90
46652;DHT22;32377;52.182;5.398;2023-04-23T09:11:29;15.30;99.90
46652;DHT22;32377;52.182;5.398;2023-04-23T09:13:56;15.30;99.90
46652;DHT22;32377;52.182;5.398;2023-04-23T09:16:21;15.40;99.90
46652;DHT22;32377;52.182;5.398;2023-04-23T09:18:47;15.40;99.90
46652;DHT22;32377;52.182;5.398;2023-04-23T09:21:15;15.50;99.90
46652;DHT22;32377;52.182;5.398;2023-04-23T09:23:42;15.70;99.90
46652;DHT22;32377;52.182;5.398;2023-04-23T09:26:07;15.50;99.90
46652;DHT22;32377;52.182;5.398;2023-04-23T09:28:36;15.50;99.90
46652;DHT22;32377;52.182;5.398;2023-04-23T09:31:04;15.70;99.90
46652;DHT22;32377;52.182;5.398;2023-04-23T09:33:33;15.80;99.90
46652;DHT22;32377;52.182;5.398;2023-04-23T09:36:07;15.80;99.90
46652;DHT22;32377;52.182;5.398;2023-04-23T09:38:33;15.80;99.90
46652;DHT22;32377;52.182;5.398;2023-04-23T09:41:27;15.60;99.90
46652;DHT22;32377;52.182;5.398;2023-04-23T09:43:56;15.60;99.90
46652;DHT22;32377;52.182;5.398;2023-04-23T09:46:54;15.90;99.90
46652;DHT22;32377;52.182;5.398;2023-04-23T09:49:19;16.20;99.90
46652;DHT22;32377;52.182;5.398;2023-04-23T09:51:47;16.20;99.90
46652;DHT22;32377;52.182;5.398;2023-04-23T09:59:29;16.20;99.90
46652;DHT22;32377;52.182;5.398;2023-04-23T10:01:56;16.40;99.90
46652;DHT22;32377;52.182;5.398;2023-04-23T10:04:25;16.30;99.90
46652;DHT22;32377;52.182;5.398;2023-04-23T10:07:02;16.30;99.90
46652;DHT22;32377;52.182;5.398;2023-04-23T10:09:29;16.40;99.90
46652;DHT22;32377;52.182;5.398;2023-04-23T10:11:57;16.60;99.90
46652;DHT22;32377;52.182;5.398;2023-04-23T10:14:25;16.60;99.90
46652;DHT22;32377;52.182;5.398;2023-04-23T10:16:52;16.60;99.90
46652;DHT22;32377;52.182;5.398;2023-04-23T10:19:22;16.60;99.90
46652;DHT22;32377;52.182;5.398;2023-04-23T10:21:54;16.50;99.90
46652;DHT22;32377;52.182;5.398;2023-04-23T10:24:25;16.50;99.90
46652;DHT22;32377;52.182;5.398;2023-04-23T10:27:00;16.80;99.90
46652;DHT22;32377;52.182;5.398;2023-04-23T10:29:31;17.30;99.90
46652;DHT22;32377;52.182;5.398;2023-04-23T10:31:59;17.60;99.90
46652;DHT22;32377;52.182;5.398;2023-04-23T10:34:26;17.70;99.90
46652;DHT22;32377;52.182;5.398;2023-04-23T10:36:54;17.80;99.90
46652;DHT22;32377;52.182;5.398;2023-04-23T10:39:21;17.60;99.90
46652;DHT22;32377;52.182;5.398;2023-04-23T10:41:47;17.50;99.90
46652;DHT22;32377;52.182;5.398;2023-04-23T10:44:14;17.50;99.90
46652;DHT22;32377;52.182;5.398;2023-04-23T10:46:56;17.60;99.90
46652;DHT22;32377;52.182;5.398;2023-04-23T10:49:23;17.40;99.90
46652;DHT22;32377;52.182;5.398;2023-04-23T10:52:01;17.40;99.90
46652;DHT22;32377;52.182;5.398;2023-04-23T10:54:29;17.30;99.90
46652;DHT22;32377;52.182;5.398;2023-04-23T10:57:14;17.10;99.90
46652;DHT22;32377;52.182;5.398;2023-04-23T10:59:50;17.10;99.90
46652;DHT22;32377;52.182;5.398;2023-04-23T11:02:16;17.20;99.90
46652;DHT22;32377;52.182;5.398;2023-04-23T11:04:46;17.30;99.90
46652;DHT22;32377;52.182;5.398;2023-04-23T11:07:13;17.30;99.90
46652;DHT22;32377;52.182;5.398;2023-04-23T11:09:42;17.40;99.90
46652;DHT22;32377;52.182;5.398;2023-04-23T11:12:31;17.20;99.90
46652;DHT22;32377;52.182;5.398;2023-04-23T11:14:58;17.30;99.90
46652;DHT22;32377;52.182;5.398;2023-04-23T11:20:10;17.80;99.90
46652;DHT22;32377;52.182;5.398;2023-04-23T11:22:48;17.80;99.90
46652;DHT22;32377;52.182;5.398;2023-04-23T11:25:22;17.70;99.90
46652;DHT22;32377;52.182;5.398;2023-04-23T11:27:49;17.80;99.90
46652;DHT22;32377;52.182;5.398;2023-04-23T11:30:15;17.90;99.90
46652;DHT22;32377;52.182;5.398;2023-04-23T11:32:44;17.80;99.90
46652;DHT22;32377;52.182;5.398;2023-04-23T11:35:12;17.90;99.90
46652;DHT22;32377;52.182;5.398;2023-04-23T11:37:43;18.10;99.90
46652;DHT22;32377;52.182;5.398;2023-04-23T11:40:10;18.10;99.90
46652;DHT22;32377;52.182;5.398;2023-04-23T11:42:42;18.20;99.90
46652;DHT22;32377;52.182;5.398;2023-04-23T11:45:19;18.20;99.90
46652;DHT22;32377;52.182;5.398;2023-04-23T11:47:45;18.30;99.90
46652;DHT22;32377;52.182;5.398;2023-04-23T11:50:31;18.30;99.90
46652;DHT22;32377;52.182;5.398;2023-04-23T11:53:18;18.50;99.90
46652;DHT22;32377;52.182;5.398;2023-04-23T11:55:43;18.40;99.90
46652;DHT22;32377;52.182;5.398;2023-04-23T11:58:16;18.20;99.90
46652;DHT22;32377;52.182;5.398;2023-04-23T12:00:42;18.30;99.90
46652;DHT22;32377;52.182;5.398;2023-04-23T12:03:08;18.30;99.90
46652;DHT22;32377;52.182;5.398;2023-04-23T12:05:35;18.20;99.90
46652;DHT22;32377;52.182;5.398;2023-04-23T12:08:13;18.20;99.90
46652;DHT22;32377;52.182;5.398;2023-04-23T12:13:21;18.20;99.90
46652;DHT22;32377;52.182;5.398;2023-04-23T12:15:48;18.20;99.90
46652;DHT22;32377;52.182;5.398;2023-04-23T12:18:15;18.00;99.90
46652;DHT22;32377;52.182;5.398;2023-04-23T12:20:41;18.00;99.90
46652;DHT22;32377;52.182;5.398;2023-04-23T12:23:07;18.30;99.90
46652;DHT22;32377;52.182;5.398;2023-04-23T12:25:33;18.30;99.90
46652;DHT22;32377;52.182;5.398;2023-04-23T12:28:00;18.40;99.90
46652;DHT22;32377;52.182;5.398;2023-04-23T12:30:31;18.40;99.90
46652;DHT22;32377;52.182;5.398;2023-04-23T12:33:00;18.60;99.90
46652;DHT22;32377;52.182;5.398;2023-04-23T12:35:37;18.60;99.90
46652;DHT22;32377;52.182;5.398;2023-04-23T12:38:04;18.50;99.90
46652;DHT22;32377;52.182;5.398;2023-04-23T12:40:30;18.60;99.90
46652;DHT22;32377;52.182;5.398;2023-04-23T12:42:56;18.60;99.90
46652;DHT22;32377;52.182;5.398;2023-04-23T12:45:22;18.70;99.90
46652;DHT22;32377;52.182;5.398;2023-04-23T12:47:47;18.60;99.90
46652;DHT22;32377;52.182;5.398;2023-04-23T12:50:13;18.60;99.90
46652;DHT22;32377;52.182;5.398;2023-04-23T12:52:38;18.60;99.90
46652;DHT22;32377;52.182;5.398;2023-04-23T12:55:04;18.60;99.90
46652;DHT22;32377;52.182;5.398;2023-04-23T12:57:31;18.60;99.90
46652;DHT22;32377;52.182;5.398;2023-04-23T12:59:56;18.70;99.90
46652;DHT22;32377;52.182;5.398;2023-04-23T13:02:23;18.90;99.90
46652;DHT22;32377;52.182;5.398;2023-04-23T13:04:50;18.80;99.90
46652;DHT22;32377;52.182;5.398;2023-04-23T13:07:15;18.60;99.90
46652;DHT22;32377;52.182;5.398;2023-04-23T13:09:41;18.30;99.90
46652;DHT22;32377;52.182;5.398;2023-04-23T13:12:07;18.20;99.90
46652;DHT22;32377;52.182;5.398;2023-04-23T13:14:32;18.40;99.90
46652;DHT22;32377;52.182;5.398;2023-04-23T13:16:58;18.40;99.90
46652;DHT22;32377;52.182;5.398;2023-04-23T13:19:24;18.50;99.90
46652;DHT22;32377;52.182;5.398;2023-04-23T13:21:49;18.40;99.90
46652;DHT22;32377;52.182;5.398;2023-04-23T13:24:15;18.30;99.90
46652;DHT22;32377;52.182;5.398;2023-04-23T13:26:40;18.40;99.90
46652;DHT22;32377;52.182;5.398;2023-04-23T13:29:06;18.40;99.90
46652;DHT22;32377;52.182;5.398;2023-04-23T13:31:32;18.50;99.90
46652;DHT22;32377;52.182;5.398;2023-04-23T13:33:58;18.40;99.90
46652;DHT22;32377;52.182;5.398;2023-04-23T13:36:24;18.40;99.90
46652;DHT22;32377;52.182;5.398;2023-04-23T13:38:50;18.40;99.90
46652;DHT22;32377;52.182;5.398;2023-04-23T13:41:15;18.40;99.90
46652;DHT22;32377;52.182;5.398;2023-04-23T13:43:41;18.30;99.90
46652;DHT22;32377;52.182;5.398;2023-04-23T13:46:07;18.30;99.90
46652;DHT22;32377;52.182;5.398;2023-04-23T13:48:33;18.40;99.90
46652;DHT22;32377;52.182;5.398;2023-04-23T13:50:59;18.40;99.90
46652;DHT22;32377;52.182;5.398;2023-04-23T13:53:26;18.50;99.90
46652;DHT22;32377;52.182;5.398;2023-04-23T13:55:54;18.60;99.90
46652;DHT22;32377;52.182;5.398;2023-04-23T13:58:20;18.50;99.90
46652;DHT22;32377;52.182;5.398;2023-04-23T14:00:46;18.60;99.90
46652;DHT22;32377;52.182;5.398;2023-04-23T14:03:11;18.60;99.90
46652;DHT22;32377;52.182;5.398;2023-04-23T14:05:37;18.50;99.90
46652;DHT22;32377;52.182;5.398;2023-04-23T14:08:03;18.40;99.90
46652;DHT22;32377;52.182;5.398;2023-04-23T14:10:28;18.40;99.90
46652;DHT22;32377;52.182;5.398;2023-04-23T14:12:54;18.30;99.90
46652;DHT22;32377;52.182;5.398;2023-04-23T14:15:20;18.50;99.90
46652;DHT22;32377;52.182;5.398;2023-04-23T14:17:46;18.50;99.90
46652;DHT22;32377;52.182;5.398;2023-04-23T14:20:12;18.60;99.90
46652;DHT22;32377;52.182;5.398;2023-04-23T14:22:40;18.60;99.90
46652;DHT22;32377;52.182;5.398;2023-04-23T14:25:14;18.40;99.90
46652;DHT22;32377;52.182;5.398;2023-04-23T14:27:45;18.30;99.90
46652;DHT22;32377;52.182;5.398;2023-04-23T14:30:16;18.10;99.90
46652;DHT22;32377;52.182;5.398;2023-04-23T14:32:43;18.10;99.90
46652;DHT22;32377;52.182;5.398;2023-04-23T14:35:13;17.90;99.90
46652;DHT22;32377;52.182;5.398;2023-04-23T14:37:40;17.80;99.90
46652;DHT22;32377;52.182;5.398;2023-04-23T14:40:13;17.80;99.90
46652;DHT22;32377;52.182;5.398;2023-04-23T14:42:49;17.70;99.90
46652;DHT22;32377;52.182;5.398;2023-04-23T14:45:15;17.60;99.90
46652;DHT22;32377;52.182;5.398;2023-04-23T14:47:43;17.80;99.90
46652;DHT22;32377;52.182;5.398;2023-04-23T14:50:13;17.70;99.90
46652;DHT22;32377;52.182;5.398;2023-04-23T14:52:39;17.70;99.90
46652;DHT22;32377;52.182;5.398;2023-04-23T14:55:05;17.70;99.90
46652;DHT22;32377;52.182;5.398;2023-04-23T14:57:30;17.70;99.90
46652;DHT22;32377;52.182;5.398;2023-04-23T14:59:56;17.50;99.90
46652;DHT22;32377;52.182;5.398;2023-04-23T15:02:21;17.40;99.90
46652;DHT22;32377;52.182;5.398;2023-04-23T15:04:47;17.30;99.90
46652;DHT22;32377;52.182;5.398;2023-04-23T15:07:13;17.10;99.90
46652;DHT22;32377;52.182;5.398;2023-04-23T15:09:38;16.60;99.90
46652;DHT22;32377;52.182;5.398;2023-04-23T15:15:02;15.80;99.90
46652;DHT22;32377;52.182;5.398;2023-04-23T15:17:28;15.40;99.90
46652;DHT22;32377;52.182;5.398;2023-04-23T15:19:54;15.00;99.90
46652;DHT22;32377;52.182;5.398;2023-04-23T15:22:21;14.50;99.90
46652;DHT22;32377;52.182;5.398;2023-04-23T15:24:46;14.10;99.90
46652;DHT22;32377;52.182;5.398;2023-04-23T15:27:12;13.90;99.90
46652;DHT22;32377;52.182;5.398;2023-04-23T15:29:39;13.70;99.90
46652;DHT22;32377;52.182;5.398;2023-04-23T15:32:06;13.60;99.90
46652;DHT22;32377;52.182;5.398;2023-04-23T15:34:31;13.40;99.90
46652;DHT22;32377;52.182;5.398;2023-04-23T15:36:57;13.50;99.90
46652;DHT22;32377;52.182;5.398;2023-04-23T15:39:22;13.50;99.90
46652;DHT22;32377;52.182;5.398;2023-04-23T15:41:50;13.50;99.90
46652;DHT22;32377;52.182;5.398;2023-04-23T15:44:16;13.40;99.90
46652;DHT22;32377;52.182;5.398;2023-04-23T15:46:43;13.40;99.90
46652;DHT22;32377;52.182;5.398;2023-04-23T15:49:09;13.40;99.90
46652;DHT22;32377;52.182;5.398;2023-04-23T15:51:35;13.40;99.90